Patricios, Argentina
Current Conditions -  °F | °C
As of 6:00 PM on Thursday 27 Nov 2014 (Local Time) from SAEZ Reporting Station
Clear Clear  
Wind Chill: 82°   Ceiling: Unl
Heat Index: 82°   Visibility: 6mi
Dew Point: 43°   Wind: 9mph
Humidity: 25%   Direction: 70°ENE
Pressure: 29.94"   Gusts: NA
Location:  35.45°S, 60.71°W
Report Text: SAEZ 272100Z 07008KT 020V080 CAVOK 28/06 Q1014
Loading
Personal Weather Stations






























Interactive Weather Map New forecast layout! Learn more

10-Day Weather Forecast

Advertisements
Track Severe Weather on mobile